sensor_id;sensor_type;location;lat;lon;timestamp;P1;durP1;ratioP1;P2;durP2;ratioP2
39620;SDS011;25309;48.686;9.170;2023-04-01T03:02:39;0.93;;;0.40;;
39620;SDS011;25309;48.686;9.170;2023-04-01T03:05:06;2.20;;;0.30;;
39620;SDS011;25309;48.686;9.170;2023-04-01T03:07:34;0.40;;;0.20;;
39620;SDS011;25309;48.686;9.170;2023-04-01T03:10:01;1.17;;;0.30;;
39620;SDS011;25309;48.686;9.170;2023-04-01T03:12:28;0.53;;;0.27;;
39620;SDS011;25309;48.686;9.170;2023-04-01T03:14:56;1.50;;;0.33;;
39620;SDS011;25309;48.686;9.170;2023-04-01T03:17:36;0.73;;;0.10;;
39620;SDS011;25309;48.686;9.170;2023-04-01T03:20:05;0.43;;;0.20;;
39620;SDS011;25309;48.686;9.170;2023-04-01T03:22:34;0.90;;;0.17;;
39620;SDS011;25309;48.686;9.170;2023-04-01T03:25:02;1.73;;;0.30;;
39620;SDS011;25309;48.686;9.170;2023-04-01T03:27:31;0.60;;;0.20;;
39620;SDS011;25309;48.686;9.170;2023-04-01T03:29:58;2.37;;;0.40;;
39620;SDS011;25309;48.686;9.170;2023-04-01T03:32:25;0.30;;;0.17;;
39620;SDS011;25309;48.686;9.170;2023-04-01T03:34:54;1.93;;;0.37;;
39620;SDS011;25309;48.686;9.170;2023-04-01T03:37:22;0.57;;;0.10;;
39620;SDS011;25309;48.686;9.170;2023-04-01T03:39:50;0.50;;;0.10;;
39620;SDS011;25309;48.686;9.170;2023-04-01T03:42:17;1.33;;;0.30;;
39620;SDS011;25309;48.686;9.170;2023-04-01T03:44:44;0.77;;;0.20;;
39620;SDS011;25309;48.686;9.170;2023-04-01T03:47:11;1.10;;;0.20;;
39620;SDS011;25309;48.686;9.170;2023-04-01T03:49:38;0.47;;;0.20;;
39620;SDS011;25309;48.686;9.170;2023-04-01T03:52:09;0.23;;;0.10;;
39620;SDS011;25309;48.686;9.170;2023-04-01T03:54:36;0.90;;;0.30;;
39620;SDS011;25309;48.686;9.170;2023-04-01T03:57:03;1.67;;;0.27;;
39620;SDS011;25309;48.686;9.170;2023-04-01T03:59:31;1.40;;;0.10;;
39620;SDS011;25309;48.686;9.170;2023-04-01T04:01:58;0.97;;;0.20;;
39620;SDS011;25309;48.686;9.170;2023-04-01T04:04:26;1.00;;;0.27;;
39620;SDS011;25309;48.686;9.170;2023-04-01T04:06:54;0.83;;;0.20;;
39620;SDS011;25309;48.686;9.170;2023-04-01T04:09:23;1.97;;;0.20;;
39620;SDS011;25309;48.686;9.170;2023-04-01T04:11:50;0.90;;;0.20;;
39620;SDS011;25309;48.686;9.170;2023-04-01T04:14:17;0.10;;;0.10;;
39620;SDS011;25309;48.686;9.170;2023-04-01T04:16:45;0.73;;;0.10;;
39620;SDS011;25309;48.686;9.170;2023-04-01T04:19:12;1.67;;;0.20;;
39620;SDS011;25309;48.686;9.170;2023-04-01T04:21:39;0.40;;;0.17;;
39620;SDS011;25309;48.686;9.170;2023-04-01T04:24:06;0.90;;;0.40;;
39620;SDS011;25309;48.686;9.170;2023-04-01T04:27:01;1.60;;;0.23;;
39620;SDS011;25309;48.686;9.170;2023-04-01T04:29:28;0.30;;;0.10;;
39620;SDS011;25309;48.686;9.170;2023-04-01T04:31:56;0.33;;;0.20;;
39620;SDS011;25309;48.686;9.170;2023-04-01T04:34:23;1.33;;;0.23;;
39620;SDS011;25309;48.686;9.170;2023-04-01T04:36:50;1.77;;;0.20;;
39620;SDS011;25309;48.686;9.170;2023-04-01T04:39:18;0.60;;;0.20;;
39620;SDS011;25309;48.686;9.170;2023-04-01T04:41:45;2.73;;;0.30;;
39620;SDS011;25309;48.686;9.170;2023-04-01T04:44:14;1.13;;;0.30;;
39620;SDS011;25309;48.686;9.170;2023-04-01T04:46:41;0.70;;;0.30;;
39620;SDS011;25309;48.686;9.170;2023-04-01T04:49:13;0.80;;;0.27;;
39620;SDS011;25309;48.686;9.170;2023-04-01T04:51:40;2.43;;;0.40;;
39620;SDS011;25309;48.686;9.170;2023-04-01T04:54:07;0.63;;;0.40;;
39620;SDS011;25309;48.686;9.170;2023-04-01T04:56:54;1.90;;;0.43;;
39620;SDS011;25309;48.686;9.170;2023-04-01T04:59:25;1.23;;;0.30;;
39620;SDS011;25309;48.686;9.170;2023-04-01T05:02:01;2.27;;;0.30;;
39620;SDS011;25309;48.686;9.170;2023-04-01T05:04:28;1.63;;;0.50;;
39620;SDS011;25309;48.686;9.170;2023-04-01T05:06:55;2.00;;;0.37;;
39620;SDS011;25309;48.686;9.170;2023-04-01T05:09:22;1.30;;;0.37;;
39620;SDS011;25309;48.686;9.170;2023-04-01T05:11:49;1.63;;;0.50;;
39620;SDS011;25309;48.686;9.170;2023-04-01T05:14:17;1.93;;;0.60;;
39620;SDS011;25309;48.686;9.170;2023-04-01T05:16:56;1.30;;;0.30;;
39620;SDS011;25309;48.686;9.170;2023-04-01T05:19:23;3.07;;;0.60;;
39620;SDS011;25309;48.686;9.170;2023-04-01T05:21:50;2.20;;;0.40;;
39620;SDS011;25309;48.686;9.170;2023-04-01T05:24:17;2.17;;;0.70;;
39620;SDS011;25309;48.686;9.170;2023-04-01T05:26:45;1.73;;;0.27;;
39620;SDS011;25309;48.686;9.170;2023-04-01T05:29:12;2.77;;;0.53;;
39620;SDS011;25309;48.686;9.170;2023-04-01T05:31:39;2.23;;;0.40;;
39620;SDS011;25309;48.686;9.170;2023-04-01T05:34:08;1.97;;;0.40;;
39620;SDS011;25309;48.686;9.170;2023-04-01T05:36:35;2.80;;;0.50;;
39620;SDS011;25309;48.686;9.170;2023-04-01T05:39:02;1.30;;;0.40;;
39620;SDS011;25309;48.686;9.170;2023-04-01T05:41:29;2.33;;;0.50;;
39620;SDS011;25309;48.686;9.170;2023-04-01T05:43:56;2.27;;;0.80;;
39620;SDS011;25309;48.686;9.170;2023-04-01T05:46:46;3.43;;;1.47;;
39620;SDS011;25309;48.686;9.170;2023-04-01T05:49:19;3.63;;;1.50;;
39620;SDS011;25309;48.686;9.170;2023-04-01T05:51:47;2.70;;;0.80;;
39620;SDS011;25309;48.686;9.170;2023-04-01T05:54:14;3.60;;;0.60;;
39620;SDS011;25309;48.686;9.170;2023-04-01T05:56:42;2.10;;;0.83;;
39620;SDS011;25309;48.686;9.170;2023-04-01T05:59:11;2.00;;;0.90;;
39620;SDS011;25309;48.686;9.170;2023-04-01T06:01:40;1.90;;;0.97;;
39620;SDS011;25309;48.686;9.170;2023-04-01T06:04:09;0.97;;;0.60;;
39620;SDS011;25309;48.686;9.170;2023-04-01T06:06:40;1.80;;;0.80;;
39620;SDS011;25309;48.686;9.170;2023-04-01T06:09:12;2.23;;;1.10;;
39620;SDS011;25309;48.686;9.170;2023-04-01T06:12:07;1.90;;;0.57;;
39620;SDS011;25309;48.686;9.170;2023-04-01T06:14:54;2.43;;;0.70;;
39620;SDS011;25309;48.686;9.170;2023-04-01T06:17:30;1.57;;;0.50;;
39620;SDS011;25309;48.686;9.170;2023-04-01T06:20:12;0.97;;;0.63;;
39620;SDS011;25309;48.686;9.170;2023-04-01T06:22:55;2.03;;;0.53;;
39620;SDS011;25309;48.686;9.170;2023-04-01T06:25:40;1.37;;;0.60;;
39620;SDS011;25309;48.686;9.170;2023-04-01T06:28:29;1.63;;;0.70;;
39620;SDS011;25309;48.686;9.170;2023-04-01T06:31:10;2.90;;;1.57;;
39620;SDS011;25309;48.686;9.170;2023-04-01T06:33:58;1.60;;;0.60;;
39620;SDS011;25309;48.686;9.170;2023-04-01T06:36:42;1.70;;;0.70;;
39620;SDS011;25309;48.686;9.170;2023-04-01T06:42:13;1.97;;;0.90;;
39620;SDS011;25309;48.686;9.170;2023-04-01T06:44:53;0.93;;;0.50;;
39620;SDS011;25309;48.686;9.170;2023-04-01T06:48:11;2.27;;;0.50;;
39620;SDS011;25309;48.686;9.170;2023-04-01T06:51:24;2.33;;;1.00;;
39620;SDS011;25309;48.686;9.170;2023-04-01T06:54:33;2.93;;;1.30;;
39620;SDS011;25309;48.686;9.170;2023-04-01T06:57:39;3.30;;;1.17;;
39620;SDS011;25309;48.686;9.170;2023-04-01T07:00:12;6.10;;;1.00;;
39620;SDS011;25309;48.686;9.170;2023-04-01T07:02:43;2.10;;;0.70;;
39620;SDS011;25309;48.686;9.170;2023-04-01T07:05:20;1.27;;;0.40;;
39620;SDS011;25309;48.686;9.170;2023-04-01T07:07:49;2.73;;;1.33;;
39620;SDS011;25309;48.686;9.170;2023-04-01T07:10:21;0.90;;;0.30;;
39620;SDS011;25309;48.686;9.170;2023-04-01T07:13:12;1.57;;;0.30;;
39620;SDS011;25309;48.686;9.170;2023-04-01T07:15:58;1.07;;;0.30;;
39620;SDS011;25309;48.686;9.170;2023-04-01T07:18:34;1.50;;;0.80;;
39620;SDS011;25309;48.686;9.170;2023-04-01T07:21:09;1.60;;;0.40;;
39620;SDS011;25309;48.686;9.170;2023-04-01T07:23:42;1.77;;;0.50;;
39620;SDS011;25309;48.686;9.170;2023-04-01T07:26:46;0.60;;;0.30;;
39620;SDS011;25309;48.686;9.170;2023-04-01T07:29:19;1.27;;;0.37;;
39620;SDS011;25309;48.686;9.170;2023-04-01T07:31:59;0.97;;;0.50;;
39620;SDS011;25309;48.686;9.170;2023-04-01T07:34:39;2.60;;;0.50;;
39620;SDS011;25309;48.686;9.170;2023-04-01T07:37:13;1.67;;;0.40;;
39620;SDS011;25309;48.686;9.170;2023-04-01T07:39:45;0.90;;;0.50;;
39620;SDS011;25309;48.686;9.170;2023-04-01T07:42:31;1.23;;;0.30;;
39620;SDS011;25309;48.686;9.170;2023-04-01T07:45:11;1.47;;;0.40;;
39620;SDS011;25309;48.686;9.170;2023-04-01T07:47:50;1.97;;;0.30;;
39620;SDS011;25309;48.686;9.170;2023-04-01T07:50:26;1.20;;;0.40;;
39620;SDS011;25309;48.686;9.170;2023-04-01T07:52:59;3.03;;;0.57;;
39620;SDS011;25309;48.686;9.170;2023-04-01T07:55:36;1.23;;;0.30;;
39620;SDS011;25309;48.686;9.170;2023-04-01T07:58:09;1.33;;;0.50;;
39620;SDS011;25309;48.686;9.170;2023-04-01T08:00:47;1.63;;;0.60;;
39620;SDS011;25309;48.686;9.170;2023-04-01T08:03:33;0.90;;;0.43;;
39620;SDS011;25309;48.686;9.170;2023-04-01T08:06:11;1.73;;;0.57;;
39620;SDS011;25309;48.686;9.170;2023-04-01T08:08:48;1.20;;;0.40;;
39620;SDS011;25309;48.686;9.170;2023-04-01T08:11:46;1.80;;;0.50;;
39620;SDS011;25309;48.686;9.170;2023-04-01T08:14:45;1.20;;;0.70;;
39620;SDS011;25309;48.686;9.170;2023-04-01T08:17:40;1.10;;;0.60;;
39620;SDS011;25309;48.686;9.170;2023-04-01T08:20:23;1.93;;;0.60;;
39620;SDS011;25309;48.686;9.170;2023-04-01T08:22:57;1.90;;;0.70;;
39620;SDS011;25309;48.686;9.170;2023-04-01T08:25:33;3.73;;;0.70;;
39620;SDS011;25309;48.686;9.170;2023-04-01T08:28:04;2.37;;;0.50;;
39620;SDS011;25309;48.686;9.170;2023-04-01T08:30:41;3.30;;;0.63;;
39620;SDS011;25309;48.686;9.170;2023-04-01T08:33:15;3.77;;;0.60;;
39620;SDS011;25309;48.686;9.170;2023-04-01T08:35:50;2.53;;;0.70;;
39620;SDS011;25309;48.686;9.170;2023-04-01T08:38:22;2.63;;;0.60;;
39620;SDS011;25309;48.686;9.170;2023-04-01T08:44:19;1.73;;;0.47;;
39620;SDS011;25309;48.686;9.170;2023-04-01T08:53:06;3.00;;;0.43;;
39620;SDS011;25309;48.686;9.170;2023-04-01T08:55:44;2.17;;;0.63;;
39620;SDS011;25309;48.686;9.170;2023-04-01T08:58:29;1.27;;;0.60;;
39620;SDS011;25309;48.686;9.170;2023-04-01T09:01:19;1.90;;;0.53;;
39620;SDS011;25309;48.686;9.170;2023-04-01T09:04:10;2.23;;;0.70;;
39620;SDS011;25309;48.686;9.170;2023-04-01T09:06:51;2.23;;;0.60;;
39620;SDS011;25309;48.686;9.170;2023-04-01T09:09:40;1.87;;;0.50;;
39620;SDS011;25309;48.686;9.170;2023-04-01T09:12:31;3.17;;;0.80;;
39620;SDS011;25309;48.686;9.170;2023-04-01T09:15:16;2.60;;;0.60;;
39620;SDS011;25309;48.686;9.170;2023-04-01T09:18:11;1.53;;;0.53;;
39620;SDS011;25309;48.686;9.170;2023-04-01T09:20:52;0.77;;;0.50;;
39620;SDS011;25309;48.686;9.170;2023-04-01T09:23:56;1.80;;;0.47;;
39620;SDS011;25309;48.686;9.170;2023-04-01T09:26:59;0.77;;;0.37;;
39620;SDS011;25309;48.686;9.170;2023-04-01T09:29:35;1.50;;;0.40;;
39620;SDS011;25309;48.686;9.170;2023-04-01T09:32:21;1.73;;;0.40;;
39620;SDS011;25309;48.686;9.170;2023-04-01T09:35:18;1.00;;;0.50;;
39620;SDS011;25309;48.686;9.170;2023-04-01T09:37:52;1.70;;;0.70;;
39620;SDS011;25309;48.686;9.170;2023-04-01T09:40:29;0.77;;;0.53;;
39620;SDS011;25309;48.686;9.170;2023-04-01T09:43:16;0.77;;;0.40;;
39620;SDS011;25309;48.686;9.170;2023-04-01T09:46:05;0.60;;;0.50;;
39620;SDS011;25309;48.686;9.170;2023-04-01T09:48:53;1.73;;;0.50;;
39620;SDS011;25309;48.686;9.170;2023-04-01T09:51:34;1.23;;;0.60;;
39620;SDS011;25309;48.686;9.170;2023-04-01T09:54:11;1.23;;;0.50;;
39620;SDS011;25309;48.686;9.170;2023-04-01T10:00:10;1.23;;;0.40;;
39620;SDS011;25309;48.686;9.170;2023-04-01T10:03:17;0.80;;;0.30;;
39620;SDS011;25309;48.686;9.170;2023-04-01T10:06:24;0.70;;;0.30;;
39620;SDS011;25309;48.686;9.170;2023-04-01T10:09:17;0.30;;;0.23;;
39620;SDS011;25309;48.686;9.170;2023-04-01T10:12:25;1.10;;;0.57;;
39620;SDS011;25309;48.686;9.170;2023-04-01T10:21:04;0.53;;;0.30;;
39620;SDS011;25309;48.686;9.170;2023-04-01T10:24:10;0.57;;;0.20;;
39620;SDS011;25309;48.686;9.170;2023-04-01T10:27:10;0.10;;;0.10;;
39620;SDS011;25309;48.686;9.170;2023-04-01T10:30:06;0.87;;;0.37;;
39620;SDS011;25309;48.686;9.170;2023-04-01T10:36:14;0.30;;;0.17;;
39620;SDS011;25309;48.686;9.170;2023-04-01T10:42:29;0.77;;;0.30;;
39620;SDS011;25309;48.686;9.170;2023-04-01T10:45:40;0.70;;;0.37;;
39620;SDS011;25309;48.686;9.170;2023-04-01T10:48:42;0.80;;;0.20;;
39620;SDS011;25309;48.686;9.170;2023-04-01T10:54:58;0.33;;;0.20;;
39620;SDS011;25309;48.686;9.170;2023-04-01T10:58:08;0.33;;;0.30;;
39620;SDS011;25309;48.686;9.170;2023-04-01T11:01:19;0.33;;;0.17;;
39620;SDS011;25309;48.686;9.170;2023-04-01T11:04:46;0.20;;;0.10;;
39620;SDS011;25309;48.686;9.170;2023-04-01T11:13:55;0.20;;;0.20;;
39620;SDS011;25309;48.686;9.170;2023-04-01T11:16:50;0.20;;;0.20;;
39620;SDS011;25309;48.686;9.170;2023-04-01T11:19:43;0.83;;;0.30;;
39620;SDS011;25309;48.686;9.170;2023-04-01T11:29:07;0.10;;;0.10;;
39620;SDS011;25309;48.686;9.170;2023-04-01T11:31:57;0.50;;;0.30;;
39620;SDS011;25309;48.686;9.170;2023-04-01T11:34:35;0.67;;;0.30;;
39620;SDS011;25309;48.686;9.170;2023-04-01T11:37:25;0.20;;;0.20;;
39620;SDS011;25309;48.686;9.170;2023-04-01T11:40:23;0.50;;;0.50;;
39620;SDS011;25309;48.686;9.170;2023-04-01T11:43:31;1.40;;;0.40;;
39620;SDS011;25309;48.686;9.170;2023-04-01T11:46:21;0.37;;;0.20;;
39620;SDS011;25309;48.686;9.170;2023-04-01T11:49:00;0.40;;;0.20;;
39620;SDS011;25309;48.686;9.170;2023-04-01T11:51:55;0.20;;;0.20;;
39620;SDS011;25309;48.686;9.170;2023-04-01T11:54:38;0.43;;;0.30;;
39620;SDS011;25309;48.686;9.170;2023-04-01T11:57:28;0.20;;;0.20;;
39620;SDS011;25309;48.686;9.170;2023-04-01T12:00:17;0.40;;;0.20;;
39620;SDS011;25309;48.686;9.170;2023-04-01T12:03:14;1.00;;;0.50;;
39620;SDS011;25309;48.686;9.170;2023-04-01T12:06:04;1.50;;;0.70;;
39620;SDS011;25309;48.686;9.170;2023-04-01T12:08:38;1.10;;;0.83;;
39620;SDS011;25309;48.686;9.170;2023-04-01T12:11:15;0.60;;;0.50;;
39620;SDS011;25309;48.686;9.170;2023-04-01T12:13:48;2.27;;;1.13;;
39620;SDS011;25309;48.686;9.170;2023-04-01T12:16:23;0.80;;;0.70;;
39620;SDS011;25309;48.686;9.170;2023-04-01T12:19:04;1.30;;;0.70;;
39620;SDS011;25309;48.686;9.170;2023-04-01T12:21:41;0.83;;;0.37;;
39620;SDS011;25309;48.686;9.170;2023-04-01T12:27:06;0.57;;;0.40;;
39620;SDS011;25309;48.686;9.170;2023-04-01T12:29:47;0.20;;;0.20;;
39620;SDS011;25309;48.686;9.170;2023-04-01T12:32:29;0.67;;;0.60;;
39620;SDS011;25309;48.686;9.170;2023-04-01T12:35:08;0.50;;;0.40;;
39620;SDS011;25309;48.686;9.170;2023-04-01T12:37:55;0.33;;;0.30;;
39620;SDS011;25309;48.686;9.170;2023-04-01T12:40:40;0.73;;;0.20;;
39620;SDS011;25309;48.686;9.170;2023-04-01T12:43:18;1.97;;;1.00;;
39620;SDS011;25309;48.686;9.170;2023-04-01T12:45:54;1.43;;;0.93;;
39620;SDS011;25309;48.686;9.170;2023-04-01T12:48:42;1.70;;;0.93;;
39620;SDS011;25309;48.686;9.170;2023-04-01T12:51:41;1.93;;;1.20;;
39620;SDS011;25309;48.686;9.170;2023-04-01T12:57:50;0.73;;;0.57;;
39620;SDS011;25309;48.686;9.170;2023-04-01T13:00:42;0.67;;;0.63;;
39620;SDS011;25309;48.686;9.170;2023-04-01T13:03:41;0.37;;;0.30;;
39620;SDS011;25309;48.686;9.170;2023-04-01T13:06:24;0.20;;;0.20;;
39620;SDS011;25309;48.686;9.170;2023-04-01T13:09:05;0.87;;;0.50;;
39620;SDS011;25309;48.686;9.170;2023-04-01T13:11:47;0.40;;;0.30;;
39620;SDS011;25309;48.686;9.170;2023-04-01T13:14:35;0.60;;;0.20;;
39620;SDS011;25309;48.686;9.170;2023-04-01T13:17:15;0.33;;;0.20;;
39620;SDS011;25309;48.686;9.170;2023-04-01T13:19:49;0.33;;;0.30;;
39620;SDS011;25309;48.686;9.170;2023-04-01T13:22:34;0.47;;;0.20;;
39620;SDS011;25309;48.686;9.170;2023-04-01T13:25:10;0.13;;;0.10;;
39620;SDS011;25309;48.686;9.170;2023-04-01T13:27:47;0.57;;;0.27;;
39620;SDS011;25309;48.686;9.170;2023-04-01T13:30:21;1.23;;;0.20;;
39620;SDS011;25309;48.686;9.170;2023-04-01T13:32:55;0.27;;;0.20;;
39620;SDS011;25309;48.686;9.170;2023-04-01T13:35:34;0.20;;;0.20;;
39620;SDS011;25309;48.686;9.170;2023-04-01T13:38:18;0.27;;;0.10;;
39620;SDS011;25309;48.686;9.170;2023-04-01T13:41:05;0.83;;;0.40;;
39620;SDS011;25309;48.686;9.170;2023-04-01T13:43:42;0.90;;;0.60;;
39620;SDS011;25309;48.686;9.170;2023-04-01T13:49:07;0.60;;;0.60;;
39620;SDS011;25309;48.686;9.170;2023-04-01T13:51:57;0.67;;;0.50;;
39620;SDS011;25309;48.686;9.170;2023-04-01T13:54:43;0.47;;;0.40;;
39620;SDS011;25309;48.686;9.170;2023-04-01T13:57:40;0.23;;;0.20;;
39620;SDS011;25309;48.686;9.170;2023-04-01T14:00:38;0.63;;;0.20;;
39620;SDS011;25309;48.686;9.170;2023-04-01T14:03:19;1.03;;;0.10;;
39620;SDS011;25309;48.686;9.170;2023-04-01T14:06:16;0.20;;;0.10;;
39620;SDS011;25309;48.686;9.170;2023-04-01T14:08:59;0.93;;;0.30;;
39620;SDS011;25309;48.686;9.170;2023-04-01T14:11:39;0.20;;;0.20;;
39620;SDS011;25309;48.686;9.170;2023-04-01T14:14:18;0.20;;;0.20;;
39620;SDS011;25309;48.686;9.170;2023-04-01T14:19:50;0.60;;;0.30;;
39620;SDS011;25309;48.686;9.170;2023-04-01T14:22:31;0.40;;;0.23;;
39620;SDS011;25309;48.686;9.170;2023-04-01T14:28:03;0.53;;;0.53;;
39620;SDS011;25309;48.686;9.170;2023-04-01T14:30:41;1.20;;;0.50;;
39620;SDS011;25309;48.686;9.170;2023-04-01T14:33:19;0.70;;;0.50;;
39620;SDS011;25309;48.686;9.170;2023-04-01T14:35:58;0.33;;;0.30;;
39620;SDS011;25309;48.686;9.170;2023-04-01T14:38:54;0.40;;;0.40;;
39620;SDS011;25309;48.686;9.170;2023-04-01T14:41:28;0.43;;;0.40;;
39620;SDS011;25309;48.686;9.170;2023-04-01T14:44:18;0.20;;;0.20;;
39620;SDS011;25309;48.686;9.170;2023-04-01T14:47:21;0.17;;;0.17;;
39620;SDS011;25309;48.686;9.170;2023-04-01T14:50:02;0.10;;;0.10;;
39620;SDS011;25309;48.686;9.170;2023-04-01T14:52:35;0.23;;;0.10;;
39620;SDS011;25309;48.686;9.170;2023-04-01T14:55:15;0.07;;;0.07;;
39620;SDS011;25309;48.686;9.170;2023-04-01T14:57:57;0.23;;;0.10;;
39620;SDS011;25309;48.686;9.170;2023-04-01T15:00:40;0.57;;;0.27;;
39620;SDS011;25309;48.686;9.170;2023-04-01T15:03:17;0.10;;;0.10;;
39620;SDS011;25309;48.686;9.170;2023-04-01T15:05:49;0.10;;;0.10;;
39620;SDS011;25309;48.686;9.170;2023-04-01T15:08:23;0.17;;;0.10;;
39620;SDS011;25309;48.686;9.170;2023-04-01T15:11:03;0.13;;;0.10;;
39620;SDS011;25309;48.686;9.170;2023-04-01T15:13:58;1.27;;;0.23;;
39620;SDS011;25309;48.686;9.170;2023-04-01T15:16:56;0.30;;;0.10;;
39620;SDS011;25309;48.686;9.170;2023-04-01T15:19:37;0.20;;;0.20;;
39620;SDS011;25309;48.686;9.170;2023-04-01T15:22:18;1.20;;;0.20;;
39620;SDS011;25309;48.686;9.170;2023-04-01T15:25:17;0.23;;;0.23;;
39620;SDS011;25309;48.686;9.170;2023-04-01T15:27:55;0.10;;;0.10;;
39620;SDS011;25309;48.686;9.170;2023-04-01T15:30:28;0.93;;;0.40;;
39620;SDS011;25309;48.686;9.170;2023-04-01T15:33:20;0.53;;;0.40;;
39620;SDS011;25309;48.686;9.170;2023-04-01T15:35:59;1.13;;;0.60;;
39620;SDS011;25309;48.686;9.170;2023-04-01T15:38:33;0.93;;;0.40;;
39620;SDS011;25309;48.686;9.170;2023-04-01T15:41:10;0.57;;;0.30;;
39620;SDS011;25309;48.686;9.170;2023-04-01T15:43:42;0.53;;;0.40;;
39620;SDS011;25309;48.686;9.170;2023-04-01T15:46:22;0.30;;;0.30;;
39620;SDS011;25309;48.686;9.170;2023-04-01T15:49:04;0.30;;;0.30;;
39620;SDS011;25309;48.686;9.170;2023-04-01T15:51:43;0.90;;;0.40;;
39620;SDS011;25309;48.686;9.170;2023-04-01T15:54:26;1.60;;;0.70;;
39620;SDS011;25309;48.686;9.170;2023-04-01T15:57:10;0.40;;;0.40;;
39620;SDS011;25309;48.686;9.170;2023-04-01T15:59:58;1.17;;;0.47;;
39620;SDS011;25309;48.686;9.170;2023-04-01T16:02:41;0.67;;;0.50;;
39620;SDS011;25309;48.686;9.170;2023-04-01T16:05:20;1.40;;;0.63;;
39620;SDS011;25309;48.686;9.170;2023-04-01T16:07:59;1.77;;;1.10;;
39620;SDS011;25309;48.686;9.170;2023-04-01T16:10:38;2.60;;;1.20;;
39620;SDS011;25309;48.686;9.170;2023-04-01T16:13:27;1.43;;;0.80;;
39620;SDS011;25309;48.686;9.170;2023-04-01T16:16:12;0.93;;;0.60;;
39620;SDS011;25309;48.686;9.170;2023-04-01T16:18:51;0.83;;;0.67;;
39620;SDS011;25309;48.686;9.170;2023-04-01T16:21:35;1.63;;;0.97;;
39620;SDS011;25309;48.686;9.170;2023-04-01T16:24:05;2.40;;;1.33;;
39620;SDS011;25309;48.686;9.170;2023-04-01T16:26:43;0.73;;;0.73;;
39620;SDS011;25309;48.686;9.170;2023-04-01T16:29:19;2.30;;;0.70;;
39620;SDS011;25309;48.686;9.170;2023-04-01T16:31:54;1.30;;;0.73;;
39620;SDS011;25309;48.686;9.170;2023-04-01T16:34:27;1.57;;;0.60;;
39620;SDS011;25309;48.686;9.170;2023-04-01T16:37:00;1.67;;;0.70;;
39620;SDS011;25309;48.686;9.170;2023-04-01T16:39:33;1.27;;;0.60;;
39620;SDS011;25309;48.686;9.170;2023-04-01T16:42:17;1.97;;;0.60;;
39620;SDS011;25309;48.686;9.170;2023-04-01T16:44:55;1.60;;;0.60;;
39620;SDS011;25309;48.686;9.170;2023-04-01T16:47:27;1.47;;;0.77;;
39620;SDS011;25309;48.686;9.170;2023-04-01T16:49:58;0.50;;;0.50;;
39620;SDS011;25309;48.686;9.170;2023-04-01T16:52:35;0.70;;;0.40;;
39620;SDS011;25309;48.686;9.170;2023-04-01T16:55:12;0.77;;;0.50;;
39620;SDS011;25309;48.686;9.170;2023-04-01T16:57:43;2.00;;;0.50;;
39620;SDS011;25309;48.686;9.170;2023-04-01T17:00:17;2.57;;;0.83;;
39620;SDS011;25309;48.686;9.170;2023-04-01T17:02:54;1.07;;;0.67;;
39620;SDS011;25309;48.686;9.170;2023-04-01T17:05:39;1.60;;;0.67;;
39620;SDS011;25309;48.686;9.170;2023-04-01T17:08:15;1.80;;;0.67;;
39620;SDS011;25309;48.686;9.170;2023-04-01T17:10:50;0.90;;;0.60;;
39620;SDS011;25309;48.686;9.170;2023-04-01T17:13:30;3.43;;;1.07;;
39620;SDS011;25309;48.686;9.170;2023-04-01T17:16:13;1.83;;;0.70;;
39620;SDS011;25309;48.686;9.170;2023-04-01T17:19:01;2.30;;;0.93;;
39620;SDS011;25309;48.686;9.170;2023-04-01T17:21:44;1.53;;;0.80;;
39620;SDS011;25309;48.686;9.170;2023-04-01T17:24:21;1.40;;;0.70;;
39620;SDS011;25309;48.686;9.170;2023-04-01T17:27:03;2.47;;;0.80;;
39620;SDS011;25309;48.686;9.170;2023-04-01T17:29:42;1.63;;;0.60;;
39620;SDS011;25309;48.686;9.170;2023-04-01T17:32:29;1.93;;;0.60;;
39620;SDS011;25309;48.686;9.170;2023-04-01T17:35:08;1.20;;;0.63;;
39620;SDS011;25309;48.686;9.170;2023-04-01T17:37:41;1.83;;;0.60;;
39620;SDS011;25309;48.686;9.170;2023-04-01T17:43:08;1.43;;;0.70;;
39620;SDS011;25309;48.686;9.170;2023-04-01T17:45:42;0.83;;;0.60;;
39620;SDS011;25309;48.686;9.170;2023-04-01T17:48:18;1.90;;;0.90;;
39620;SDS011;25309;48.686;9.170;2023-04-01T17:50:59;1.37;;;0.80;;
39620;SDS011;25309;48.686;9.170;2023-04-01T17:53:39;0.90;;;0.63;;
39620;SDS011;25309;48.686;9.170;2023-04-01T17:59:16;1.20;;;0.60;;
39620;SDS011;25309;48.686;9.170;2023-04-01T18:01:49;0.77;;;0.63;;
39620;SDS011;25309;48.686;9.170;2023-04-01T18:04:31;3.37;;;0.93;;
39620;SDS011;25309;48.686;9.170;2023-04-01T18:10:16;1.37;;;0.80;;
39620;SDS011;25309;48.686;9.170;2023-04-01T18:12:56;1.03;;;0.77;;
39620;SDS011;25309;48.686;9.170;2023-04-01T18:15:45;1.50;;;0.90;;
39620;SDS011;25309;48.686;9.170;2023-04-01T18:18:26;1.03;;;0.77;;
39620;SDS011;25309;48.686;9.170;2023-04-01T18:21:06;2.07;;;0.80;;
39620;SDS011;25309;48.686;9.170;2023-04-01T18:23:43;1.20;;;0.60;;
39620;SDS011;25309;48.686;9.170;2023-04-01T18:26:28;0.93;;;0.70;;
39620;SDS011;25309;48.686;9.170;2023-04-01T18:28:57;0.93;;;0.73;;
39620;SDS011;25309;48.686;9.170;2023-04-01T18:31:32;1.03;;;0.73;;
39620;SDS011;25309;48.686;9.170;2023-04-01T18:34:06;1.00;;;0.50;;
39620;SDS011;25309;48.686;9.170;2023-04-01T18:36:40;1.20;;;0.60;;
39620;SDS011;25309;48.686;9.170;2023-04-01T18:39:12;1.03;;;0.70;;
39620;SDS011;25309;48.686;9.170;2023-04-01T18:41:48;1.10;;;0.67;;
39620;SDS011;25309;48.686;9.170;2023-04-01T18:44:25;1.07;;;0.50;;
39620;SDS011;25309;48.686;9.170;2023-04-01T18:46:59;0.80;;;0.47;;
39620;SDS011;25309;48.686;9.170;2023-04-01T18:49:33;1.20;;;0.60;;
39620;SDS011;25309;48.686;9.170;2023-04-01T18:52:13;1.20;;;0.77;;
39620;SDS011;25309;48.686;9.170;2023-04-01T18:54:45;1.63;;;0.80;;
39620;SDS011;25309;48.686;9.170;2023-04-01T18:57:19;2.73;;;1.10;;
39620;SDS011;25309;48.686;9.170;2023-04-01T18:59:47;1.20;;;0.70;;
39620;SDS011;25309;48.686;9.170;2023-04-01T19:02:25;1.73;;;1.00;;
39620;SDS011;25309;48.686;9.170;2023-04-01T19:05:00;2.07;;;1.10;;
39620;SDS011;25309;48.686;9.170;2023-04-01T19:07:44;1.43;;;0.80;;
39620;SDS011;25309;48.686;9.170;2023-04-01T19:10:15;1.93;;;0.87;;
39620;SDS011;25309;48.686;9.170;2023-04-01T19:12:49;1.43;;;1.07;;
39620;SDS011;25309;48.686;9.170;2023-04-01T19:15:29;1.07;;;0.80;;
39620;SDS011;25309;48.686;9.170;2023-04-01T19:21:04;2.10;;;1.20;;
39620;SDS011;25309;48.686;9.170;2023-04-01T19:23:56;2.27;;;1.03;;
39620;SDS011;25309;48.686;9.170;2023-04-01T19:26:48;1.60;;;0.93;;
39620;SDS011;25309;48.686;9.170;2023-04-01T19:29:26;1.70;;;0.97;;
39620;SDS011;25309;48.686;9.170;2023-04-01T19:32:08;1.40;;;0.90;;
39620;SDS011;25309;48.686;9.170;2023-04-01T19:34:49;1.47;;;0.87;;
39620;SDS011;25309;48.686;9.170;2023-04-01T19:37:26;2.33;;;1.13;;
39620;SDS011;25309;48.686;9.170;2023-04-01T19:40:02;2.30;;;1.07;;
39620;SDS011;25309;48.686;9.170;2023-04-01T19:42:43;1.43;;;1.07;;
39620;SDS011;25309;48.686;9.170;2023-04-01T19:45:22;3.20;;;2.00;;
39620;SDS011;25309;48.686;9.170;2023-04-01T19:48:02;1.50;;;1.07;;
39620;SDS011;25309;48.686;9.170;2023-04-01T19:50:37;3.13;;;1.00;;
39620;SDS011;25309;48.686;9.170;2023-04-01T19:53:11;2.10;;;0.90;;
39620;SDS011;25309;48.686;9.170;2023-04-01T19:55:47;1.47;;;0.83;;
39620;SDS011;25309;48.686;9.170;2023-04-01T19:58:23;1.50;;;1.10;;
39620;SDS011;25309;48.686;9.170;2023-04-01T20:00:57;1.83;;;1.10;;
39620;SDS011;25309;48.686;9.170;2023-04-01T20:03:32;1.20;;;0.90;;
39620;SDS011;25309;48.686;9.170;2023-04-01T20:06:08;1.20;;;0.80;;
39620;SDS011;25309;48.686;9.170;2023-04-01T20:08:45;1.10;;;0.70;;
39620;SDS011;25309;48.686;9.170;2023-04-01T20:11:26;1.77;;;1.10;;
39620;SDS011;25309;48.686;9.170;2023-04-01T20:14:01;2.07;;;1.13;;
39620;SDS011;25309;48.686;9.170;2023-04-01T20:16:54;1.20;;;0.90;;